Time;durP1;ratioP1;P1;durP2;ratioP2;P2;SDS_P1;SDS_P2;PMS_P1;PMS_P2;Temp;Humidity;BMP_temperature;BMP_pressure;BME280_temperature;BME280_humidity;BME280_pressure;Samples;Min_cycle;Max_cycle;Signal;HPM_P1;HPM_P2
2022/02/26 10:11:41;;;;;;;10.50;9.80;;;13.30;60.80;;;;;;5067410;27;20684;-77
2022/02/26 10:14:12;;;;;;;10.90;10.10;;;11.90;59.40;;;;;;5067063;28;20447;-77
2022/02/26 10:16:44;;;;;;;10.07;9.50;;;11.60;61.30;;;;;;5067295;28;20938;-75
2022/02/26 10:19:11;;;;;;;9.90;9.30;;;11.30;61.40;;;;;;5067071;28;20910;-77
2022/02/26 10:21:42;;;;;;;10.20;9.43;;;11.00;61.00;;;;;;5067345;28;20450;-78
2022/02/26 10:24:12;;;;;;;11.40;10.40;;;11.20;62.40;;;;;;5067035;28;20454;-77
2022/02/26 10:26:38;;;;;;;11.10;10.27;;;11.20;63.90;;;;;;5067280;28;20510;-77
2022/02/26 10:29:11;;;;;;;10.60;9.67;;;11.40;64.90;;;;;;5066812;28;20451;-78
2022/02/26 10:31:50;;;;;;;10.07;9.37;;;11.10;64.30;;;;;;5067052;28;20454;-78
2022/02/26 10:34:32;;;;;;;10.97;9.87;;;11.00;64.90;;;;;;5066597;28;20447;-78
2022/02/26 10:37:01;;;;;;;11.67;10.67;;;10.60;66.00;;;;;;5066469;28;20470;-78
2022/02/26 10:39:29;;;;;;;11.93;10.83;;;10.00;68.60;;;;;;5066459;28;20443;-77
2022/02/26 10:41:56;;;;;;;11.50;10.13;;;9.70;71.80;;;;;;5066589;28;20910;-77
2022/02/26 10:44:24;;;;;;;10.43;9.43;;;9.60;73.00;;;;;;5066851;28;20455;-78
2022/02/26 10:46:51;;;;;;;11.10;10.20;;;9.60;73.00;;;;;;5066583;28;20452;-77
2022/02/26 10:49:21;;;;;;;11.00;10.07;;;9.70;72.80;;;;;;5066186;28;20494;-77
2022/02/26 10:51:50;;;;;;;11.83;10.63;;;10.10;71.60;;;;;;5066325;28;20454;-77
2022/02/26 10:54:23;;;;;;;11.30;10.30;;;10.20;71.20;;;;;;5066327;28;20896;-80
2022/02/26 10:56:51;;;;;;;10.17;9.47;;;10.30;70.30;;;;;;5066204;28;20447;-78
2022/02/26 10:59:30;;;;;;;10.80;9.90;;;10.10;71.90;;;;;;5066163;28;20453;-77
2022/02/26 11:02:06;;;;;;;14.80;10.00;;;10.20;72.60;;;;;;5065944;28;20482;-77
2022/02/26 11:04:33;;;;;;;11.60;10.40;;;10.20;73.80;;;;;;5066106;28;20833;-76
2022/02/26 11:07:00;;;;;;;11.23;10.43;;;10.00;75.70;;;;;;5065983;28;20907;-77
2022/02/26 11:09:27;;;;;;;12.03;11.20;;;9.50;78.90;;;;;;5065804;28;20483;-77
2022/02/26 11:11:57;;;;;;;11.70;10.63;;;8.90;82.50;;;;;;5056830;28;20458;-77
2022/02/26 11:14:26;;;;;;;12.90;11.30;;;8.60;85.50;;;;;;5052936;28;20926;-77
2022/02/26 11:16:57;;;;;;;13.43;11.50;;;8.50;86.10;;;;;;5052800;28;20456;-78
2022/02/26 11:19:26;;;;;;;10.87;10.10;;;8.20;86.60;;;;;;5052896;28;20448;-78
2022/02/26 11:21:54;;;;;;;11.77;10.83;;;8.30;87.70;;;;;;5052651;28;20448;-77
2022/02/26 11:24:21;;;;;;;12.00;9.60;;;8.40;87.60;;;;;;5052646;28;20444;-77
2022/02/26 11:26:48;;;;;;;10.90;9.93;;;8.30;86.50;;;;;;5052433;28;20460;-76
2022/02/26 11:29:17;;;;;;;10.70;9.90;;;8.00;84.80;;;;;;5052353;28;20636;-78
2022/02/26 11:31:47;;;;;;;11.40;9.50;;;8.10;84.30;;;;;;5051981;28;20990;-78
2022/02/26 11:34:22;;;;;;;11.13;10.13;;;8.20;83.10;;;;;;5052287;28;20479;-77
2022/02/26 11:36:52;;;;;;;10.47;9.63;;;8.60;84.50;;;;;;5052109;28;20449;-75
2022/02/26 11:39:31;;;;;;;10.80;10.10;;;10.80;76.90;;;;;;5052439;28;20809;-75
2022/02/26 11:42:36;;;;;;;10.43;9.80;;;12.90;70.30;;;;;;5052172;28;20447;-77
2022/02/26 11:45:06;;;;;;;10.80;10.20;;;15.20;61.00;;;;;;5050953;28;20515;-78
2022/02/26 11:47:42;;;;;;;10.70;10.10;;;14.60;57.30;;;;;;5051869;28;20470;-76
2022/02/26 11:50:14;;;;;;;11.23;10.23;;;14.10;59.40;;;;;;5052214;28;20487;-78
2022/02/26 11:52:50;;;;;;;11.80;10.93;;;13.60;60.10;;;;;;5052138;28;20448;-77
2022/02/26 11:55:26;;;;;;;11.97;11.07;;;13.50;60.00;;;;;;5051902;28;20968;-75
2022/02/26 11:57:54;;;;;;;11.30;10.43;;;13.80;59.40;;;;;;5052341;28;20458;-77
2022/02/26 12:00:22;;;;;;;10.50;9.50;;;13.00;60.20;;;;;;5051946;28;20844;-77
2022/02/26 12:03:24;;;;;;;12.07;11.07;;;12.00;60.70;;;;;;5051565;28;20499;-75
2022/02/26 12:05:55;;;;;;;10.87;10.07;;;11.80;63.50;;;;;;5052089;28;20475;-77
2022/02/26 12:08:36;;;;;;;10.00;9.20;;;12.40;62.00;;;;;;5052091;28;20448;-75
2022/02/26 12:11:06;;;;;;;10.43;9.63;;;11.70;62.40;;;;;;5051589;28;20542;-75
2022/02/26 12:13:34;;;;;;;9.77;9.03;;;10.90;65.60;;;;;;5051759;28;20459;-77
2022/02/26 12:16:16;;;;;;;11.87;10.53;;;10.60;66.10;;;;;;5051506;28;20490;-78
2022/02/26 12:18:45;;;;;;;10.60;9.80;;;10.80;66.60;;;;;;5051539;28;20483;-77
2022/02/26 12:21:16;;;;;;;11.13;10.30;;;10.70;66.80;;;;;;5051621;28;20459;-78
2022/02/26 12:23:43;;;;;;;10.20;9.17;;;10.70;66.70;;;;;;5050615;28;20455;-78
2022/02/26 12:26:12;;;;;;;10.30;9.60;;;10.60;67.30;;;;;;5051493;28;20459;-78
2022/02/26 12:28:39;;;;;;;10.80;9.90;;;10.10;66.40;;;;;;5051757;28;20486;-77
2022/02/26 12:31:08;;;;;;;11.10;10.13;;;9.50;69.20;;;;;;5051662;28;21010;-77
2022/02/26 12:33:39;;;;;;;8.93;8.30;;;9.00;71.20;;;;;;5051379;28;20456;-75
2022/02/26 12:36:10;;;;;;;10.80;9.83;;;9.10;72.60;;;;;;5051474;28;20445;-75
2022/02/26 12:38:47;;;;;;;10.33;9.70;;;9.40;72.30;;;;;;5051499;28;20457;-75
2022/02/26 12:41:35;;;;;;;10.10;9.10;;;10.30;69.20;;;;;;5051080;28;20468;-76
2022/02/26 12:44:02;;;;;;;9.57;8.87;;;10.80;66.60;;;;;;5051172;28;20510;-76
2022/02/26 12:46:31;;;;;;;10.10;9.37;;;11.00;63.90;;;;;;5050898;28;20456;-76
2022/02/26 12:49:00;;;;;;;10.20;9.20;;;10.40;64.70;;;;;;5050904;28;20452;-76
2022/02/26 12:51:29;;;;;;;11.10;10.20;;;10.70;65.50;;;;;;5050871;28;20513;-76
2022/02/26 12:53:57;;;;;;;10.73;9.83;;;12.10;63.40;;;;;;5050812;28;20452;-75
2022/02/26 12:56:32;;;;;;;11.30;10.57;;;13.50;61.70;;;;;;5051067;28;20452;-75
2022/02/26 12:59:10;;;;;;;13.07;11.70;;;14.60;58.40;;;;;;5050842;28;20470;-78
2022/02/26 13:01:38;;;;;;;10.90;10.00;;;14.30;58.70;;;;;;5050857;28;20467;-77
2022/02/26 13:04:05;;;;;;;12.20;11.10;;;13.60;59.90;;;;;;5050665;28;20448;-75
2022/02/26 13:06:32;;;;;;;10.57;9.97;;;13.10;60.90;;;;;;5050482;28;20998;-77
2022/02/26 13:09:00;;;;;;;10.27;9.37;;;12.70;59.90;;;;;;5050141;28;20452;-77
2022/02/26 13:11:27;;;;;;;11.23;10.33;;;12.10;62.90;;;;;;5048952;28;20496;-79
2022/02/26 13:14:08;;;;;;;9.37;8.60;;;11.60;63.10;;;;;;5049976;28;20475;-79
2022/02/26 13:16:35;;;;;;;10.53;9.60;;;10.80;64.90;;;;;;5048654;28;20464;-78
2022/02/26 13:19:02;;;;;;;10.30;9.40;;;10.80;66.00;;;;;;5050330;28;20954;-78
2022/02/26 13:21:37;;;;;;;9.27;8.67;;;10.90;65.80;;;;;;5050112;28;20440;-78
2022/02/26 13:24:07;;;;;;;9.40;8.70;;;10.60;66.80;;;;;;5050009;28;20451;-75
2022/02/26 13:26:35;;;;;;;9.93;9.13;;;11.30;65.90;;;;;;5050673;28;20440;-76
2022/02/26 13:29:07;;;;;;;9.50;8.87;;;12.60;62.50;;;;;;5050157;28;20872;-78
2022/02/26 13:31:35;;;;;;;10.97;9.97;;;13.00;62.10;;;;;;5050116;28;21033;-78
2022/02/26 13:34:13;;;;;;;10.87;9.80;;;12.80;64.00;;;;;;5049998;28;20456;-79
2022/02/26 13:36:40;;;;;;;10.43;9.60;;;13.10;61.70;;;;;;5050259;28;20447;-79
2022/02/26 13:39:08;;;;;;;10.20;9.40;;;13.30;58.80;;;;;;5050463;28;20452;-78
2022/02/26 13:41:38;;;;;;;10.47;9.57;;;12.20;60.70;;;;;;5050155;28;20931;-77
2022/02/26 13:44:07;;;;;;;9.63;8.83;;;11.30;62.10;;;;;;5050122;28;20451;-78
2022/02/26 13:46:36;;;;;;;10.80;9.80;;;10.40;63.70;;;;;;5050044;28;20468;-78
2022/02/26 13:49:04;;;;;;;9.93;9.10;;;9.60;66.50;;;;;;5049958;28;20440;-78
2022/02/26 13:51:33;;;;;;;10.07;9.10;;;9.10;69.20;;;;;;5050111;28;20918;-77
2022/02/26 13:54:00;;;;;;;10.63;8.70;;;8.70;69.60;;;;;;5050175;28;20479;-78
2022/02/26 13:56:29;;;;;;;8.90;8.40;;;8.60;71.30;;;;;;5049935;28;20451;-78
2022/02/26 13:58:57;;;;;;;9.40;8.80;;;8.40;75.10;;;;;;5050075;28;20444;-76
2022/02/26 14:01:24;;;;;;;12.37;11.07;;;8.70;76.10;;;;;;5050051;28;20468;-77
2022/02/26 14:03:52;;;;;;;9.40;8.70;;;8.70;73.50;;;;;;5049763;28;20444;-76
2022/02/26 14:06:30;;;;;;;11.83;9.27;;;8.70;74.90;;;;;;5049853;28;20965;-76
2022/02/26 14:08:58;;;;;;;10.20;9.27;;;8.70;75.00;;;;;;5049943;28;20498;-75
2022/02/26 14:11:30;;;;;;;10.10;9.10;;;8.80;74.90;;;;;;5049668;28;21101;-77
2022/02/26 14:13:57;;;;;;;9.37;8.77;;;8.80;75.70;;;;;;5050447;28;20452;-76
2022/02/26 14:16:25;;;;;;;10.33;9.27;;;8.60;74.60;;;;;;5050182;28;20605;-76
2022/02/26 14:18:52;;;;;;;9.63;8.90;;;8.50;75.20;;;;;;5050075;28;20478;-76
2022/02/26 14:21:20;;;;;;;10.00;9.30;;;8.20;75.90;;;;;;5050031;28;20808;-77
2022/02/26 14:23:48;;;;;;;10.97;8.70;;;7.80;75.30;;;;;;5049945;28;20486;-77
2022/02/26 14:26:17;;;;;;;9.93;9.20;;;7.50;74.90;;;;;;5050072;28;20486;-77
2022/02/26 14:28:48;;;;;;;9.97;9.37;;;7.30;76.10;;;;;;5049807;28;20448;-77
2022/02/26 14:31:15;;;;;;;14.17;10.20;;;7.30;77.20;;;;;;5049749;28;20490;-76
2022/02/26 14:33:42;;;;;;;9.10;8.50;;;7.30;77.60;;;;;;5049747;28;20462;-75
2022/02/26 14:36:09;;;;;;;8.93;8.30;;;7.50;77.30;;;;;;5049886;28;20452;-74
2022/02/26 14:38:35;;;;;;;9.73;9.03;;;7.70;77.00;;;;;;5049486;28;20458;-75
2022/02/26 14:41:06;;;;;;;9.47;8.90;;;8.10;76.00;;;;;;5049466;28;20477;-75
2022/02/26 14:43:32;;;;;;;9.97;9.00;;;8.50;74.80;;;;;;5049467;28;20444;-74
2022/02/26 14:46:01;;;;;;;8.70;8.13;;;8.70;73.50;;;;;;5049763;28;20445;-73
2022/02/26 14:48:28;;;;;;;9.00;8.50;;;8.70;72.80;;;;;;5053153;28;20810;-74
2022/02/26 14:50:54;;;;;;;9.77;9.07;;;8.40;72.50;;;;;;5053493;28;20492;-74
2022/02/26 14:53:22;;;;;;;10.20;9.40;;;8.20;74.40;;;;;;5053326;28;20448;-75
2022/02/26 14:55:49;;;;;;;10.03;9.33;;;7.90;75.70;;;;;;5053113;28;20462;-75
2022/02/26 14:58:16;;;;;;;9.53;8.93;;;7.80;76.20;;;;;;5053194;28;20448;-74
2022/02/26 15:00:43;;;;;;;9.90;9.00;;;7.70;76.80;;;;;;5052992;28;20944;-74
2022/02/26 15:03:11;;;;;;;10.00;9.33;;;7.50;76.40;;;;;;5052886;28;21012;-74
2022/02/26 15:05:38;;;;;;;9.70;8.80;;;7.30;76.80;;;;;;5053107;28;20459;-74
2022/02/26 15:08:05;;;;;;;9.87;9.20;;;7.20;76.80;;;;;;5052854;28;20455;-74
2022/02/26 15:10:31;;;;;;;9.53;8.73;;;7.10;77.40;;;;;;5052618;28;20996;-74
2022/02/26 15:12:58;;;;;;;10.10;9.07;;;7.00;77.40;;;;;;5052659;28;20452;-75
2022/02/26 15:15:26;;;;;;;9.20;8.70;;;7.00;78.30;;;;;;5052706;28;20829;-74
2022/02/26 15:17:53;;;;;;;28.83;20.17;;;7.00;78.10;;;;;;5052913;28;20467;-74
2022/02/26 15:20:21;;;;;;;9.60;9.00;;;7.00;78.20;;;;;;5052660;28;20454;-74
2022/02/26 15:22:48;;;;;;;12.00;10.40;;;6.90;78.80;;;;;;5052565;28;20452;-74
2022/02/26 15:25:15;;;;;;;11.07;10.23;;;6.90;79.40;;;;;;5052514;28;20819;-74
2022/02/26 15:27:43;;;;;;;10.37;9.60;;;6.90;78.50;;;;;;5052402;28;20455;-75
2022/02/26 15:30:11;;;;;;;7.63;7.23;;;6.80;79.10;;;;;;5052625;28;20453;-75
2022/02/26 15:32:38;;;;;;;18.43;11.00;;;6.70;78.10;;;;;;5052451;28;20478;-76
2022/02/26 15:35:06;;;;;;;9.47;8.87;;;6.70;79.10;;;;;;5052534;28;20816;-74
2022/02/26 15:37:34;;;;;;;10.57;9.77;;;6.70;78.10;;;;;;5052062;28;20514;-74
2022/02/26 15:40:01;;;;;;;14.03;8.93;;;6.80;77.60;;;;;;5052015;28;20461;-75
2022/02/26 15:42:30;;;;;;;9.67;9.00;;;6.90;77.70;;;;;;5052226;28;20459;-75
2022/02/26 15:44:57;;;;;;;10.40;9.27;;;7.10;77.10;;;;;;5052118;28;20459;-74
2022/02/26 15:47:24;;;;;;;10.00;9.30;;;7.30;76.30;;;;;;5052416;28;20460;-75
2022/02/26 15:49:51;;;;;;;10.33;9.37;;;7.30;75.30;;;;;;5052058;28;20451;-75
2022/02/26 15:52:18;;;;;;;9.30;8.60;;;7.30;75.30;;;;;;5051820;28;21028;-73
2022/02/26 15:54:46;;;;;;;9.20;8.70;;;7.30;75.00;;;;;;5051804;28;20509;-74
2022/02/26 15:57:13;;;;;;;9.43;8.57;;;7.30;75.50;;;;;;5051822;28;20466;-74
2022/02/26 15:59:39;;;;;;;9.57;8.77;;;7.20;76.40;;;;;;5052134;28;20448;-74
2022/02/26 16:02:07;;;;;;;9.03;8.23;;;7.10;76.90;;;;;;5051890;28;20468;-75
2022/02/26 16:04:35;;;;;;;9.20;8.60;;;7.00;76.80;;;;;;5051905;28;20461;-74
2022/02/26 16:07:01;;;;;;;9.00;8.27;;;6.90;76.80;;;;;;5051970;28;20465;-74
2022/02/26 16:09:28;;;;;;;8.93;8.43;;;6.80;76.10;;;;;;5051524;28;20458;-74
2022/02/26 16:11:56;;;;;;;9.17;8.37;;;6.80;77.10;;;;;;5051862;28;20483;-74
2022/02/26 16:14:23;;;;;;;10.47;9.17;;;6.90;77.10;;;;;;5051932;28;20451;-74
2022/02/26 16:16:50;;;;;;;9.37;8.67;;;6.90;77.30;;;;;;5051625;28;20449;-74
2022/02/26 16:19:17;;;;;;;9.20;8.60;;;6.90;77.50;;;;;;5051531;28;20458;-74
2022/02/26 16:21:44;;;;;;;8.93;7.70;;;6.80;78.40;;;;;;5051527;28;20954;-74
2022/02/26 16:24:11;;;;;;;7.90;7.37;;;6.80;79.60;;;;;;5051651;28;20463;-74
2022/02/26 16:26:38;;;;;;;9.10;8.40;;;6.80;79.50;;;;;;5051743;28;20448;-75
2022/02/26 16:29:06;;;;;;;7.80;7.20;;;6.80;80.10;;;;;;5051254;28;20483;-73
2022/02/26 16:31:33;;;;;;;9.53;8.67;;;6.70;79.50;;;;;;5051060;28;20482;-74
2022/02/26 16:33:59;;;;;;;8.87;8.20;;;6.70;79.20;;;;;;5051380;28;20856;-77
2022/02/26 16:36:26;;;;;;;9.73;9.23;;;6.60;79.60;;;;;;5051507;28;20451;-76
2022/02/26 16:38:53;;;;;;;8.73;8.10;;;6.50;79.60;;;;;;5051233;28;20445;-73
2022/02/26 16:41:19;;;;;;;9.57;8.70;;;6.40;79.90;;;;;;5050857;28;20968;-73
2022/02/26 16:43:47;;;;;;;9.40;8.70;;;6.40;78.20;;;;;;5050923;28;20477;-74
2022/02/26 16:46:15;;;;;;;10.13;8.73;;;6.50;78.70;;;;;;5050767;28;20452;-73
2022/02/26 16:48:42;;;;;;;10.17;9.27;;;6.50;78.50;;;;;;5051093;28;20816;-75
2022/02/26 16:51:08;;;;;;;10.07;9.13;;;6.50;78.70;;;;;;5050848;28;20451;-75
2022/02/26 16:53:36;;;;;;;10.73;9.83;;;6.50;79.10;;;;;;5050947;28;20981;-75
2022/02/26 16:56:02;;;;;;;9.07;8.27;;;6.50;78.90;;;;;;5050782;28;20450;-75
2022/02/26 16:58:29;;;;;;;9.57;8.67;;;6.50;79.30;;;;;;5050686;28;20445;-74
2022/02/26 17:00:56;;;;;;;9.93;8.70;;;6.40;79.70;;;;;;5050728;28;20504;-74
2022/02/26 17:03:24;;;;;;;7.40;6.97;;;6.30;79.40;;;;;;5050933;28;20455;-73
2022/02/26 17:05:50;;;;;;;8.40;7.90;;;6.30;78.40;;;;;;5050618;28;20448;-74
2022/02/26 17:08:17;;;;;;;8.23;7.83;;;6.30;78.50;;;;;;5050610;28;20450;-75
2022/02/26 17:10:44;;;;;;;8.37;7.53;;;6.20;77.30;;;;;;5050077;28;20469;-74
2022/02/26 17:13:11;;;;;;;8.20;7.70;;;6.20;77.10;;;;;;5050548;28;20513;-74
2022/02/26 17:15:42;;;;;;;7.93;7.53;;;6.20;77.70;;;;;;5050585;28;20961;-75
2022/02/26 17:18:09;;;;;;;9.07;8.20;;;6.10;78.20;;;;;;5050735;28;20510;-74
2022/02/26 17:20:37;;;;;;;10.83;8.67;;;6.10;79.40;;;;;;5050586;28;20474;-74
2022/02/26 17:23:04;;;;;;;7.80;7.30;;;5.90;79.70;;;;;;5050374;28;20447;-75
2022/02/26 17:25:31;;;;;;;7.90;7.33;;;5.80;79.20;;;;;;5050318;28;20460;-74
2022/02/26 17:27:59;;;;;;;8.27;7.67;;;5.80;80.60;;;;;;5050166;28;20455;-73
2022/02/26 17:30:25;;;;;;;9.57;8.70;;;5.80;80.80;;;;;;5050365;28;20826;-75
2022/02/26 17:32:52;;;;;;;7.93;7.43;;;5.80;81.20;;;;;;5050361;28;20485;-75
2022/02/26 17:35:19;;;;;;;8.10;7.70;;;5.80;82.00;;;;;;5050229;28;20460;-75
2022/02/26 17:37:48;;;;;;;8.70;8.07;;;5.70;82.60;;;;;;5050037;28;20448;-75
2022/02/26 17:40:15;;;;;;;7.67;7.20;;;5.60;82.70;;;;;;5050332;28;20488;-75
2022/02/26 17:42:42;;;;;;;7.70;7.10;;;5.70;83.70;;;;;;5049986;28;20448;-75
2022/02/26 17:45:09;;;;;;;7.47;7.07;;;5.60;83.70;;;;;;5050257;28;20482;-74
2022/02/26 17:47:36;;;;;;;9.03;8.37;;;5.60;84.20;;;;;;5050156;28;20448;-74
2022/02/26 17:50:03;;;;;;;13.97;7.93;;;5.50;84.60;;;;;;5049850;28;20451;-75
2022/02/26 17:52:30;;;;;;;8.40;7.73;;;5.50;85.10;;;;;;5049862;28;20490;-75
2022/02/26 17:54:58;;;;;;;7.77;7.17;;;5.30;86.30;;;;;;5049954;28;20818;-75
2022/02/26 17:57:25;;;;;;;8.03;7.27;;;5.20;86.70;;;;;;5050119;28;20453;-74
